Time;durP1;ratioP1;P1;durP2;ratioP2;P2;SDS_P1;SDS_P2;PMS_P1;PMS_P2;Temp;Humidity;BMP_temperature;BMP_pressure;BME280_temperature;BME280_humidity;BME280_pressure;Samples;Min_cycle;Max_cycle;Signal;HPM_P1;HPM_P2
2021/07/16 00:02:28;;;;;;;3.13;2.93;;;;;;;14.55;100.00;97972.22;4979616;28;20202;-70
2021/07/16 00:04:56;;;;;;;3.20;3.00;;;;;;;14.60;100.00;97985.00;4983707;28;20205;-68
2021/07/16 00:07:24;;;;;;;3.70;3.50;;;;;;;14.51;100.00;97983.44;4986441;28;20681;-69
2021/07/16 00:09:52;;;;;;;3.07;2.97;;;;;;;14.47;100.00;97986.50;4985049;28;20252;-69
2021/07/16 00:12:21;;;;;;;4.33;2.83;;;;;;;14.51;100.00;97978.09;4984164;28;20913;-67
2021/07/16 00:14:49;;;;;;;3.80;3.60;;;;;;;14.44;100.00;97984.22;4983400;28;20229;-70
2021/07/16 00:17:17;;;;;;;2.77;2.67;;;;;;;14.41;100.00;97986.44;4982586;28;20208;-70
2021/07/16 00:19:47;;;;;;;3.17;2.97;;;;;;;14.39;100.00;97985.78;4987500;28;20324;-68
2021/07/16 00:22:15;;;;;;;3.63;3.23;;;;;;;14.25;100.00;97990.97;4985631;28;20753;-70
2021/07/16 00:24:49;;;;;;;3.30;3.10;;;;;;;14.16;100.00;97984.91;4983782;28;20241;-68
2021/07/16 00:27:17;;;;;;;4.07;3.77;;;;;;;14.12;100.00;97998.81;4986259;28;20268;-68
2021/07/16 00:29:45;;;;;;;3.47;3.27;;;;;;;14.10;100.00;97992.84;4987020;28;20472;-69
2021/07/16 00:32:13;;;;;;;3.20;3.00;;;;;;;14.08;100.00;97990.38;4985384;28;20236;-68
2021/07/16 00:34:41;;;;;;;3.40;3.10;;;;;;;14.02;100.00;97991.13;4983137;28;20287;-68
2021/07/16 00:37:10;;;;;;;3.40;3.20;;;;;;;13.98;100.00;97997.81;4984592;28;20213;-68
2021/07/16 00:39:38;;;;;;;4.50;3.63;;;;;;;13.93;100.00;97992.25;4987280;28;20201;-68
2021/07/16 00:42:07;;;;;;;3.50;3.20;;;;;;;13.85;100.00;97995.81;4986744;28;20212;-69
2021/07/16 00:44:36;;;;;;;3.27;3.00;;;;;;;13.78;100.00;97990.41;4983643;28;20237;-67
2021/07/16 00:47:05;;;;;;;3.33;3.13;;;;;;;13.83;100.00;98001.34;4985343;28;20205;-68
2021/07/16 00:49:33;;;;;;;4.27;3.53;;;;;;;13.72;100.00;98001.78;4984291;28;20466;-72
2021/07/16 00:52:01;;;;;;;3.17;2.97;;;;;;;13.73;100.00;97998.13;4983759;28;20206;-68
2021/07/16 00:54:30;;;;;;;3.13;2.90;;;;;;;13.70;100.00;98001.16;4982142;28;20240;-70
2021/07/16 00:56:59;;;;;;;3.97;3.60;;;;;;;13.61;100.00;98003.06;4984866;28;20570;-67
2021/07/16 00:59:27;;;;;;;3.20;2.80;;;;;;;13.71;100.00;98003.63;4983883;28;20221;-68
2021/07/16 01:01:56;;;;;;;4.20;2.70;;;;;;;13.83;100.00;98000.50;4984002;28;20497;-69
2021/07/16 01:04:25;;;;;;;3.27;2.97;;;;;;;13.94;100.00;98007.22;4983953;28;20225;-71
2021/07/16 01:06:53;;;;;;;3.77;3.27;;;;;;;13.75;100.00;98001.41;4984235;28;20221;-69
2021/07/16 01:09:21;;;;;;;3.37;3.07;;;;;;;13.82;100.00;97991.66;4985382;28;20213;-69
2021/07/16 01:11:50;;;;;;;5.97;3.17;;;;;;;13.80;100.00;98001.69;4982241;28;20214;-69
2021/07/16 01:14:20;;;;;;;3.50;2.93;;;;;;;13.75;100.00;97990.75;4985140;28;20640;-72
2021/07/16 01:16:48;;;;;;;3.20;3.00;;;;;;;13.77;100.00;97977.28;4984429;28;20626;-71
2021/07/16 01:19:21;;;;;;;3.17;2.67;;;;;;;13.86;100.00;97982.31;4982887;28;20679;-70
2021/07/16 01:21:50;;;;;;;3.23;2.93;;;;;;;13.85;100.00;97980.69;4984555;28;20209;-68
2021/07/16 01:24:20;;;;;;;3.80;3.10;;;;;;;13.88;100.00;97982.97;4982293;28;20231;-70
2021/07/16 01:26:48;;;;;;;3.00;2.90;;;;;;;13.78;100.00;97985.06;4983713;28;20220;-69
2021/07/16 01:29:18;;;;;;;2.70;2.60;;;;;;;13.71;100.00;97978.84;4986619;28;20534;-68
2021/07/16 01:31:46;;;;;;;3.60;2.67;;;;;;;13.70;100.00;97979.84;4981760;28;20208;-71
2021/07/16 01:34:14;;;;;;;2.90;2.70;;;;;;;13.64;100.00;97981.44;4984654;28;20241;-69
2021/07/16 01:36:42;;;;;;;3.80;3.40;;;;;;;13.73;100.00;97985.63;4980057;28;20218;-72
2021/07/16 01:39:09;;;;;;;3.77;3.47;;;;;;;13.76;100.00;97976.44;4982983;28;20645;-70
2021/07/16 01:41:39;;;;;;;5.57;3.60;;;;;;;13.69;100.00;97976.38;4981465;28;20210;-70
2021/07/16 01:44:07;;;;;;;6.17;4.00;;;;;;;13.62;100.00;97977.28;4984160;28;20217;-69
2021/07/16 01:46:35;;;;;;;4.50;4.10;;;;;;;13.64;100.00;97973.44;4981495;28;20213;-69
2021/07/16 01:49:03;;;;;;;8.60;5.67;;;;;;;13.69;100.00;97965.72;4985901;28;20556;-68
2021/07/16 01:51:31;;;;;;;6.17;4.67;;;;;;;13.72;100.00;97981.31;4982146;28;20201;-68
2021/07/16 01:53:59;;;;;;;7.60;5.10;;;;;;;13.78;100.00;97974.41;4980371;28;20229;-69
2021/07/16 01:56:27;;;;;;;5.30;4.80;;;;;;;13.93;100.00;97979.72;4983244;28;20209;-69
2021/07/16 01:58:56;;;;;;;5.57;5.07;;;;;;;13.89;100.00;97987.28;4982458;28;20209;-70
2021/07/16 02:01:25;;;;;;;9.50;5.20;;;;;;;13.88;100.00;97974.97;4986365;28;20237;-70
2021/07/16 02:03:53;;;;;;;8.43;5.77;;;;;;;13.88;100.00;97968.81;4982384;28;20217;-70
2021/07/16 02:06:21;;;;;;;8.40;6.40;;;;;;;13.89;100.00;97970.47;4978880;28;20202;-72
2021/07/16 02:08:49;;;;;;;12.03;6.93;;;;;;;13.86;100.00;97969.00;4983570;28;20213;-70
2021/07/16 02:11:21;;;;;;;14.20;6.83;;;;;;;13.84;100.00;97967.53;4983896;28;20208;-71
2021/07/16 02:13:49;;;;;;;14.13;5.43;;;;;;;13.80;100.00;97975.06;4983609;28;20927;-69
2021/07/16 02:16:19;;;;;;;9.83;6.10;;;;;;;13.77;100.00;97982.59;4983539;28;20197;-70
2021/07/16 02:18:51;;;;;;;11.27;5.63;;;;;;;13.78;100.00;97985.06;4984760;28;20213;-69
2021/07/16 02:21:19;;;;;;;8.00;5.60;;;;;;;13.70;100.00;97986.00;4987321;28;20205;-71
2021/07/16 02:23:48;;;;;;;5.97;5.47;;;;;;;13.66;100.00;97989.22;4967499;28;20227;-70
2021/07/16 02:26:16;;;;;;;9.97;5.60;;;;;;;13.68;100.00;97996.03;4966559;28;20217;-70
2021/07/16 02:28:44;;;;;;;8.03;5.30;;;;;;;13.78;100.00;97990.41;4988724;28;20221;-69
2021/07/16 02:31:14;;;;;;;5.27;4.77;;;;;;;13.82;100.00;97986.34;4984900;28;20206;-70
2021/07/16 02:33:43;;;;;;;10.30;6.43;;;;;;;13.71;100.00;97978.84;4986362;28;20748;-70
2021/07/16 02:36:11;;;;;;;8.47;5.63;;;;;;;13.65;100.00;97991.06;4986107;28;20202;-70
2021/07/16 02:38:39;;;;;;;11.63;5.97;;;;;;;13.60;100.00;97998.75;4985611;28;20224;-70
2021/07/16 02:41:07;;;;;;;6.97;6.30;;;;;;;13.53;100.00;98004.00;4981674;28;20574;-69
2021/07/16 02:43:36;;;;;;;12.50;5.73;;;;;;;13.50;100.00;98003.53;4983195;28;20506;-70
2021/07/16 02:46:04;;;;;;;5.93;5.37;;;;;;;13.52;100.00;98001.50;4985201;28;20205;-68
2021/07/16 02:48:32;;;;;;;9.63;6.50;;;;;;;13.49;100.00;98008.03;4988544;28;20209;-69
2021/07/16 02:51:02;;;;;;;11.17;4.80;;;;;;;13.56;100.00;98010.78;4984714;28;20205;-69
2021/07/16 02:53:30;;;;;;;11.53;5.53;;;;;;;13.57;100.00;98009.78;4988175;28;20241;-72
2021/07/16 02:55:58;;;;;;;15.53;6.50;;;;;;;13.54;100.00;98005.66;4986363;28;20201;-68
2021/07/16 02:58:26;;;;;;;9.73;6.17;;;;;;;13.42;100.00;98010.59;4984933;28;20213;-67
2021/07/16 03:00:54;;;;;;;9.83;5.97;;;;;;;13.40;100.00;98017.91;4982425;28;20240;-70
2021/07/16 03:03:23;;;;;;;12.07;5.27;;;;;;;13.40;100.00;98017.91;4983618;28;20724;-69
2021/07/16 03:05:51;;;;;;;12.07;5.47;;;;;;;13.28;100.00;98030.00;4985625;28;20536;-70
2021/07/16 03:08:20;;;;;;;5.93;5.30;;;;;;;13.35;100.00;98035.41;4983848;28;20609;-71
2021/07/16 03:10:48;;;;;;;9.27;5.13;;;;;;;13.39;100.00;98034.88;4984341;28;20232;-70
2021/07/16 03:13:18;;;;;;;6.87;5.30;;;;;;;13.37;100.00;98041.38;4985623;28;20309;-71
2021/07/16 03:15:47;;;;;;;6.70;4.07;;;;;;;13.34;100.00;98045.25;4981780;28;20229;-71
2021/07/16 03:18:15;;;;;;;5.07;4.67;;;;;;;13.42;100.00;98044.31;4985424;28;20358;-71
2021/07/16 03:20:46;;;;;;;9.97;6.87;;;;;;;13.55;100.00;98047.25;4982410;28;20733;-72
2021/07/16 03:23:15;;;;;;;6.43;5.83;;;;;;;13.62;100.00;98043.84;4984869;28;20690;-71
2021/07/16 03:25:44;;;;;;;10.53;5.73;;;;;;;13.50;100.00;98049.63;4985364;28;20210;-72
2021/07/16 03:28:13;;;;;;;12.90;6.67;;;;;;;13.44;100.00;98053.00;4984410;28;20206;-70
2021/07/16 03:30:41;;;;;;;5.40;5.10;;;;;;;13.56;100.00;98054.22;4984122;28;20224;-70
2021/07/16 03:33:09;;;;;;;10.80;5.40;;;;;;;13.58;100.00;98048.69;4978397;28;20226;-72
2021/07/16 03:35:38;;;;;;;13.47;7.27;;;;;;;13.46;100.00;98054.47;4978964;28;20628;-71
2021/07/16 03:38:06;;;;;;;7.53;5.57;;;;;;;13.58;100.00;98057.53;4980151;28;20210;-73
2021/07/16 03:40:34;;;;;;;5.93;5.53;;;;;;;13.55;100.00;98054.38;4984671;28;20362;-71
2021/07/16 03:43:03;;;;;;;6.53;5.90;;;;;;;13.49;100.00;98071.09;4983148;28;20233;-73
2021/07/16 03:45:35;;;;;;;10.83;6.70;;;;;;;13.57;100.00;98074.50;4984195;28;20205;-74
2021/07/16 03:48:04;;;;;;;7.80;6.17;;;;;;;13.65;100.00;98076.28;4985069;28;20284;-72
2021/07/16 03:50:32;;;;;;;7.83;6.23;;;;;;;13.72;100.00;98071.88;4984095;28;20214;-71
2021/07/16 03:53:02;;;;;;;8.50;6.47;;;;;;;13.73;100.00;98070.88;4981420;28;20284;-71
2021/07/16 03:55:31;;;;;;;6.80;6.20;;;;;;;13.66;100.00;98067.28;4980779;28;20225;-73
2021/07/16 03:57:59;;;;;;;5.67;5.27;;;;;;;13.70;100.00;98067.72;4985278;28;20602;-72
2021/07/16 04:00:30;;;;;;;6.27;5.87;;;;;;;13.67;100.00;98063.59;4981832;28;20209;-71
2021/07/16 04:02:59;;;;;;;6.30;5.80;;;;;;;13.69;100.00;98061.59;4981130;28;20321;-72
2021/07/16 04:05:30;;;;;;;6.60;6.20;;;;;;;13.92;100.00;98067.84;4980641;28;20201;-73
2021/07/16 04:08:03;;;;;;;7.53;7.03;;;;;;;13.85;100.00;98067.75;4981364;28;20213;-72
2021/07/16 04:10:32;;;;;;;7.90;7.30;;;;;;;13.80;100.00;98076.25;4983476;28;20206;-71
2021/07/16 04:13:02;;;;;;;8.17;7.47;;;;;;;13.95;100.00;98086.13;4982257;28;20702;-72
2021/07/16 04:15:32;;;;;;;9.00;8.20;;;;;;;13.87;100.00;98084.34;4982321;28;20398;-73
2021/07/16 04:18:01;;;;;;;8.73;8.03;;;;;;;13.94;100.00;98079.13;4982791;28;20205;-71
2021/07/16 04:20:30;;;;;;;8.03;7.43;;;;;;;13.86;100.00;98080.03;4986544;28;20288;-70
2021/07/16 04:22:59;;;;;;;9.10;8.30;;;;;;;13.98;100.00;98080.41;4983567;28;20220;-70
2021/07/16 04:25:27;;;;;;;7.77;7.07;;;;;;;13.96;100.00;98085.09;4982520;28;20497;-72
2021/07/16 04:28:00;;;;;;;8.33;7.60;;;;;;;14.05;100.00;98081.34;4984255;28;20594;-70
2021/07/16 04:30:28;;;;;;;9.07;7.23;;;;;;;14.14;100.00;98080.22;4984753;28;20201;-70
2021/07/16 04:32:59;;;;;;;7.87;7.27;;;;;;;14.21;100.00;98074.16;4984069;28;20233;-71
2021/07/16 04:35:27;;;;;;;7.43;6.83;;;;;;;14.26;100.00;98087.75;4985357;28;20226;-69
2021/07/16 04:37:55;;;;;;;8.90;8.20;;;;;;;14.13;100.00;98081.22;4983537;28;20605;-72
2021/07/16 04:40:25;;;;;;;8.13;7.33;;;;;;;14.06;100.00;98077.66;4983272;28;20210;-70
2021/07/16 04:42:55;;;;;;;7.93;7.33;;;;;;;14.07;100.00;98083.81;4985930;28;20621;-72
2021/07/16 04:45:23;;;;;;;9.03;8.00;;;;;;;14.09;100.00;98085.28;4985136;28;20213;-70
2021/07/16 04:47:51;;;;;;;9.43;8.47;;;;;;;14.31;100.00;98088.84;4979883;28;20330;-71
2021/07/16 04:50:22;;;;;;;9.03;8.20;;;;;;;14.25;100.00;98086.13;4982749;28;20215;-71
2021/07/16 04:52:51;;;;;;;9.60;8.50;;;;;;;14.36;100.00;98087.47;4982740;28;20713;-69
2021/07/16 04:55:21;;;;;;;10.07;8.43;;;;;;;14.32;100.00;98090.50;4989671;28;20304;-69
2021/07/16 04:57:50;;;;;;;9.13;8.33;;;;;;;14.46;100.00;98093.34;4978786;28;20904;-70
2021/07/16 05:00:19;;;;;;;9.57;8.37;;;;;;;14.47;100.00;98092.34;4976800;28;20282;-69
2021/07/16 05:02:47;;;;;;;9.90;8.03;;;;;;;14.69;100.00;98097.69;4969387;28;20229;-67
2021/07/16 05:05:15;;;;;;;9.03;8.13;;;;;;;14.93;100.00;98109.06;4966718;28;20464;-70
2021/07/16 05:07:45;;;;;;;9.53;8.80;;;;;;;14.72;100.00;98103.53;4985997;28;20205;-68
2021/07/16 05:10:13;;;;;;;8.90;8.00;;;;;;;14.94;100.00;98108.06;4983083;28;20205;-70
2021/07/16 05:12:41;;;;;;;10.33;7.60;;;;;;;14.99;100.00;98111.81;4981687;28;20237;-70
2021/07/16 05:15:11;;;;;;;8.70;7.97;;;;;;;14.88;100.00;98110.47;4982250;28;20339;-70
2021/07/16 05:17:39;;;;;;;10.50;9.50;;;;;;;15.08;100.00;98101.81;4979597;28;20586;-69
2021/07/16 05:20:09;;;;;;;10.90;9.80;;;;;;;15.31;100.00;98106.97;4981460;28;20206;-69
2021/07/16 05:22:37;;;;;;;10.53;9.30;;;;;;;15.38;100.00;98116.91;4980155;28;20219;-68
2021/07/16 05:25:08;;;;;;;10.37;9.27;;;;;;;15.37;100.00;98112.59;4982720;28;20201;-70
2021/07/16 05:27:38;;;;;;;9.73;8.93;;;;;;;15.41;100.00;98124.53;4979145;28;20633;-69
2021/07/16 05:30:08;;;;;;;11.00;10.00;;;;;;;15.24;100.00;98116.75;4982586;28;20216;-70
2021/07/16 05:32:35;;;;;;;10.87;9.87;;;;;;;15.27;100.00;98115.56;4982653;28;20212;-68
2021/07/16 05:35:04;;;;;;;11.13;10.20;;;;;;;15.31;100.00;98117.66;4978098;28;20225;-66
2021/07/16 05:37:32;;;;;;;10.47;9.67;;;;;;;15.56;100.00;98121.78;4982411;28;20205;-71
2021/07/16 05:40:00;;;;;;;10.33;9.43;;;;;;;15.70;100.00;98123.53;4983950;28;20667;-68
2021/07/16 05:42:29;;;;;;;10.23;9.23;;;;;;;15.73;100.00;98127.66;4981721;28;20227;-69
2021/07/16 05:44:57;;;;;;;10.53;9.70;;;;;;;15.62;100.00;98131.69;4980605;28;20209;-69
2021/07/16 05:47:26;;;;;;;10.47;9.63;;;;;;;15.57;100.00;98129.59;4979397;28;20210;-70
2021/07/16 05:49:54;;;;;;;9.47;8.77;;;;;;;15.39;100.00;98129.22;4979885;28;20212;-69
2021/07/16 05:52:24;;;;;;;11.47;10.47;;;;;;;15.45;100.00;98131.94;4980904;28;20205;-69
2021/07/16 05:54:52;;;;;;;10.63;9.73;;;;;;;15.63;100.00;98125.31;4981723;28;20609;-69
2021/07/16 05:57:20;;;;;;;10.73;9.80;;;;;;;15.78;100.00;98136.72;4980282;28;20578;-70
2021/07/16 05:59:49;;;;;;;11.90;9.03;;;;;;;15.73;100.00;98138.34;4980871;28;20698;-71
2021/07/16 06:02:17;;;;;;;10.70;9.80;;;;;;;15.84;100.00;98145.00;4980808;28;20205;-69
2021/07/16 06:04:46;;;;;;;10.87;9.87;;;;;;;15.89;100.00;98142.59;4976724;28;20214;-69
2021/07/16 06:07:14;;;;;;;10.37;9.50;;;;;;;15.80;100.00;98141.91;4981212;28;20200;-69
2021/07/16 06:09:42;;;;;;;10.07;9.37;;;;;;;16.17;100.00;98145.25;4977519;28;20656;-69
2021/07/16 06:12:10;;;;;;;11.13;10.17;;;;;;;16.16;100.00;98150.78;4979555;28;20206;-70
2021/07/16 06:14:40;;;;;;;10.47;9.67;;;;;;;16.27;100.00;98152.09;4981304;28;20229;-68
2021/07/16 06:17:09;;;;;;;11.90;10.70;;;;;;;16.37;100.00;98146.41;4982253;28;20225;-70
2021/07/16 06:19:37;;;;;;;12.70;11.53;;;;;;;16.44;100.00;98150.75;4975222;28;20206;-70
2021/07/16 06:22:06;;;;;;;11.23;10.30;;;;;;;16.33;100.00;98149.47;4976250;28;20645;-70
2021/07/16 06:24:34;;;;;;;11.83;10.73;;;;;;;16.24;100.00;98157.84;4977124;28;20264;-69
2021/07/16 06:27:02;;;;;;;11.23;10.33;;;;;;;16.27;100.00;98165.47;4981725;28;20250;-68
2021/07/16 06:29:30;;;;;;;12.63;11.63;;;;;;;16.28;100.00;98167.13;4980088;28;20308;-70
2021/07/16 06:31:58;;;;;;;11.50;10.63;;;;;;;16.24;100.00;98168.53;4971336;28;20205;-71
2021/07/16 06:34:28;;;;;;;11.60;10.77;;;;;;;16.58;100.00;98164.19;4984060;28;20234;-71
2021/07/16 06:36:56;;;;;;;10.57;9.77;;;;;;;16.70;100.00;98170.63;4980336;28;20268;-70
2021/07/16 06:39:30;;;;;;;12.53;11.53;;;;;;;16.41;100.00;98174.41;4981254;28;20213;-70
2021/07/16 06:41:58;;;;;;;12.67;11.47;;;;;;;16.59;100.00;98173.88;4982079;28;20209;-70
2021/07/16 06:44:26;;;;;;;12.63;11.63;;;;;;;16.76;100.00;98169.00;4975540;28;20221;-69
2021/07/16 06:46:54;;;;;;;12.20;11.27;;;;;;;16.83;100.00;98175.22;4970017;28;20285;-69
2021/07/16 06:49:26;;;;;;;14.50;13.33;;;;;;;16.79;100.00;98173.97;4978590;28;20205;-71
2021/07/16 06:51:56;;;;;;;14.30;13.30;;;;;;;16.88;100.00;98170.06;4981062;28;20211;-70
2021/07/16 06:54:25;;;;;;;14.67;13.57;;;;;;;16.93;100.00;98175.66;4982703;28;20229;-72
2021/07/16 06:56:53;;;;;;;14.47;13.30;;;;;;;17.08;100.00;98169.34;4978125;28;20217;-72
2021/07/16 06:59:22;;;;;;;14.00;12.87;;;;;;;17.06;100.00;98176.78;4981796;28;20590;-70
2021/07/16 07:01:50;;;;;;;12.60;11.60;;;;;;;17.41;100.00;98178.47;4976102;28;20205;-71
2021/07/16 07:04:19;;;;;;;13.20;12.20;;;;;;;17.61;100.00;98179.31;4979711;28;20945;-68
2021/07/16 07:06:47;;;;;;;11.83;11.00;;;;;;;17.40;100.00;98182.19;4981176;28;20575;-70
2021/07/16 07:09:17;;;;;;;11.03;10.33;;;;;;;17.37;100.00;98180.72;4984021;28;20678;-71
2021/07/16 07:11:45;;;;;;;12.40;11.40;;;;;;;17.02;100.00;98180.84;4982067;28;20218;-67
2021/07/16 07:14:13;;;;;;;12.90;12.00;;;;;;;17.17;100.00;98176.16;4984326;28;20341;-69
2021/07/16 07:16:41;;;;;;;12.07;11.13;;;;;;;17.56;100.00;98176.44;4977065;28;20233;-69
2021/07/16 07:19:09;;;;;;;11.13;10.33;;;;;;;17.65;100.00;98177.91;4982275;28;20287;-69
2021/07/16 07:21:36;;;;;;;11.57;10.60;;;;;;;17.89;100.00;98182.84;4986861;28;20649;-68
2021/07/16 07:24:05;;;;;;;11.00;10.07;;;;;;;17.78;100.00;98187.78;4981873;28;20842;-69
2021/07/16 07:26:35;;;;;;;10.50;9.70;;;;;;;17.63;100.00;98193.34;4983946;28;20198;-70
2021/07/16 07:29:03;;;;;;;9.97;9.27;;;;;;;17.60;100.00;98188.38;4981928;28;20674;-68
2021/07/16 07:31:31;;;;;;;10.40;9.60;;;;;;;17.48;100.00;98187.34;4986250;28;20217;-71
2021/07/16 07:34:00;;;;;;;9.53;8.87;;;;;;;17.49;100.00;98189.00;4982627;28;20781;-70
2021/07/16 07:36:28;;;;;;;10.00;9.20;;;;;;;17.41;100.00;98189.19;4983603;28;20225;-70
2021/07/16 07:38:57;;;;;;;9.50;8.63;;;;;;;17.53;100.00;98189.44;4985891;28;20230;-71
2021/07/16 07:41:26;;;;;;;9.87;9.07;;;;;;;17.63;100.00;98189.84;4981783;28;20198;-70
2021/07/16 07:43:56;;;;;;;10.47;9.60;;;;;;;17.57;100.00;98196.84;4984012;28;20241;-68
2021/07/16 07:46:25;;;;;;;8.67;8.07;;;;;;;17.40;100.00;98192.91;4986399;28;20202;-68
2021/07/16 07:48:53;;;;;;;10.10;9.40;;;;;;;17.50;100.00;98188.81;4983490;28;20574;-69
2021/07/16 07:51:21;;;;;;;8.50;7.90;;;;;;;17.75;100.00;98190.88;4981368;28;20563;-70
2021/07/16 07:53:49;;;;;;;10.83;9.80;;;;;;;17.74;100.00;98193.78;4977087;28;20255;-73
2021/07/16 07:56:30;;;;;;;10.43;9.53;;;;;;;17.65;100.00;98198.50;4981593;28;20248;-73
2021/07/16 07:58:59;;;;;;;8.83;8.23;;;;;;;17.84;100.00;98190.69;4983538;28;20209;-70
2021/07/16 08:01:31;;;;;;;10.10;9.23;;;;;;;17.96;100.00;98189.03;4982004;28;20228;-71
2021/07/16 08:04:01;;;;;;;10.13;9.43;;;;;;;18.21;100.00;98186.56;4982440;28;20395;-69
2021/07/16 08:06:29;;;;;;;9.77;8.97;;;;;;;18.30;100.00;98192.53;4983888;28;20293;-68
2021/07/16 08:08:57;;;;;;;8.50;7.80;;;;;;;18.45;100.00;98191.44;4982730;28;20260;-70
2021/07/16 08:11:25;;;;;;;9.23;8.53;;;;;;;18.53;98.80;98199.28;4984092;28;20425;-70
2021/07/16 08:13:53;;;;;;;9.03;8.23;;;;;;;18.72;97.95;98194.88;4981941;28;20626;-71
2021/07/16 08:16:23;;;;;;;8.60;7.80;;;;;;;18.93;96.91;98201.81;4984352;28;20241;-70
2021/07/16 08:18:51;;;;;;;8.40;7.77;;;;;;;19.17;94.46;98191.41;4982625;28;20205;-72
2021/07/16 08:21:20;;;;;;;8.37;7.30;;;;;;;19.34;93.93;98190.94;4981626;28;20236;-70
2021/07/16 08:23:48;;;;;;;8.57;7.97;;;;;;;19.40;93.65;98195.44;4983708;28;20267;-71
2021/07/16 08:26:18;;;;;;;7.20;6.70;;;;;;;19.49;92.23;98201.34;4983783;28;20202;-71
2021/07/16 08:28:51;;;;;;;7.60;7.00;;;;;;;19.70;90.86;98202.88;4981212;28;20686;-70
2021/07/16 08:31:19;;;;;;;7.53;7.03;;;;;;;20.31;87.11;98197.81;4983866;28;20210;-69
2021/07/16 08:33:51;;;;;;;6.37;5.87;;;;;;;20.57;86.97;98198.59;4985742;28;20264;-70
2021/07/16 08:36:19;;;;;;;6.17;5.67;;;;;;;20.63;83.40;98200.38;4981090;28;20426;-69
2021/07/16 08:38:47;;;;;;;7.03;5.60;;;;;;;20.53;84.10;98197.41;4980835;28;20304;-71
2021/07/16 08:41:19;;;;;;;4.70;4.40;;;;;;;20.75;79.74;98205.84;4980192;28;20252;-69
2021/07/16 08:43:49;;;;;;;5.27;4.80;;;;;;;20.43;78.76;98195.22;4978375;28;20292;-70
2021/07/16 08:46:17;;;;;;;5.10;4.80;;;;;;;20.35;79.60;98203.59;4979586;28;20214;-70
2021/07/16 08:48:47;;;;;;;6.13;5.00;;;;;;;20.60;79.92;98197.31;4982402;28;20209;-70
2021/07/16 08:51:19;;;;;;;5.43;5.13;;;;;;;20.63;78.87;98208.47;4984670;28;20208;-68
2021/07/16 08:53:50;;;;;;;7.20;4.53;;;;;;;21.03;75.05;98203.69;4978504;28;20230;-71
2021/07/16 08:56:25;;;;;;;4.70;4.17;;;;;;;20.84;75.88;98210.97;4981934;28;20211;-71
2021/07/16 08:58:53;;;;;;;3.87;3.63;;;;;;;20.59;75.62;98209.97;4982414;28;20753;-70
2021/07/16 09:01:21;;;;;;;3.90;3.60;;;;;;;20.69;76.75;98214.84;4980772;28;20228;-71
2021/07/16 09:03:59;;;;;;;3.60;3.37;;;;;;;20.94;72.77;98219.31;4982725;28;20473;-67
2021/07/16 09:06:48;;;;;;;3.53;3.23;;;;;;;21.07;71.93;98211.09;4982332;28;20197;-68
2021/07/16 09:09:17;;;;;;;3.57;3.37;;;;;;;20.77;72.87;98219.06;4982016;28;20638;-73
2021/07/16 09:11:47;;;;;;;4.50;3.27;;;;;;;20.56;73.47;98215.78;4980097;28;20220;-68
2021/07/16 09:14:20;;;;;;;3.73;3.37;;;;;;;20.62;71.27;98216.75;4981880;28;20714;-70
2021/07/16 09:16:56;;;;;;;3.40;3.20;;;;;;;20.62;73.05;98216.75;4979486;28;20222;-70
2021/07/16 09:19:30;;;;;;;3.03;2.93;;;;;;;20.87;72.12;98216.72;4982240;28;20205;-68
2021/07/16 09:22:04;;;;;;;3.33;3.13;;;;;;;21.00;71.61;98207.63;4980166;28;20293;-71
2021/07/16 09:24:33;;;;;;;2.90;2.70;;;;;;;21.14;71.75;98212.88;4982635;28;20229;-69
2021/07/16 09:27:02;;;;;;;2.70;2.50;;;;;;;21.20;69.21;98217.34;4980910;28;20202;-70
2021/07/16 09:29:31;;;;;;;2.40;1.93;;;;;;;21.46;64.29;98218.84;4981599;28;20210;-68
2021/07/16 09:32:04;;;;;;;2.23;2.13;;;;;;;21.30;66.06;98214.91;4979779;28;20684;-68
2021/07/16 09:34:32;;;;;;;2.53;2.40;;;;;;;21.14;66.53;98216.38;4981375;28;20267;-68
2021/07/16 09:37:09;;;;;;;2.10;2.00;;;;;;;20.95;65.32;98208.34;4981514;28;20240;-67
2021/07/16 09:39:37;;;;;;;1.83;1.73;;;;;;;21.01;66.15;98206.59;4979916;28;20209;-68
2021/07/16 09:42:06;;;;;;;2.17;2.07;;;;;;;21.07;64.90;98207.56;4978791;28;20213;-69
2021/07/16 09:44:38;;;;;;;1.60;1.60;;;;;;;21.02;64.43;98205.53;4979912;28;20225;-70
2021/07/16 09:47:08;;;;;;;1.33;1.33;;;;;;;21.03;65.70;98207.22;4978439;28;20216;-68
2021/07/16 09:49:36;;;;;;;1.70;1.60;;;;;;;21.11;64.04;98212.28;4979577;28;21036;-70
2021/07/16 09:52:10;;;;;;;2.30;1.83;;;;;;;21.24;64.26;98205.91;4982217;28;20206;-68
2021/07/16 09:54:38;;;;;;;1.43;1.33;;;;;;;21.31;62.22;98210.38;4978325;28;20236;-69
2021/07/16 09:57:06;;;;;;;1.83;1.50;;;;;;;21.29;64.83;98205.19;4978521;28;20993;-69
2021/07/16 09:59:34;;;;;;;1.80;1.70;;;;;;;21.43;63.38;98203.13;4982336;28;20233;-69
2021/07/16 10:02:02;;;;;;;2.17;2.07;;;;;;;21.56;65.87;98191.34;4980267;28;20232;-68
2021/07/16 10:04:33;;;;;;;2.30;2.20;;;;;;;21.63;64.87;98193.94;4978003;28;20725;-70
2021/07/16 10:07:02;;;;;;;2.10;2.00;;;;;;;21.85;64.53;98199.63;4978534;28;20205;-71
2021/07/16 10:09:32;;;;;;;2.03;1.90;;;;;;;21.83;64.29;98194.47;4972255;28;20301;-70
2021/07/16 10:12:01;;;;;;;4.80;2.00;;;;;;;22.07;61.98;98188.25;4973368;28;20954;-73
2021/07/16 10:14:29;;;;;;;2.07;1.87;;;;;;;21.90;63.98;98183.56;4979674;28;20725;-67
2021/07/16 10:16:57;;;;;;;2.03;1.93;;;;;;;22.24;60.52;98186.50;4982285;28;20209;-68
2021/07/16 10:19:26;;;;;;;2.53;1.70;;;;;;;22.33;63.38;98194.25;4980696;28;20656;-68
2021/07/16 10:21:54;;;;;;;2.77;2.27;;;;;;;22.42;63.18;98192.81;4978466;28;20294;-70
2021/07/16 10:24:26;;;;;;;2.50;2.40;;;;;;;22.48;62.28;98186.50;4979620;28;20229;-69
2021/07/16 10:27:15;;;;;;;2.27;2.13;;;;;;;22.80;58.68;98194.19;4977421;28;20206;-70
2021/07/16 10:29:45;;;;;;;1.93;1.83;;;;;;;22.59;59.88;98184.03;4977865;28;20233;-68
2021/07/16 10:32:43;;;;;;;2.97;2.30;;;;;;;22.65;59.50;98183.91;4980908;28;20212;-70
2021/07/16 10:35:17;;;;;;;4.70;2.00;;;;;;;22.83;61.31;98187.50;4978575;28;20209;-70
2021/07/16 10:37:46;;;;;;;2.07;1.97;;;;;;;23.25;57.15;98186.44;4980379;28;20610;-70
2021/07/16 10:40:39;;;;;;;2.20;2.10;;;;;;;22.89;57.37;98185.72;4983140;28;20630;-69
2021/07/16 10:43:10;;;;;;;2.60;1.93;;;;;;;23.02;58.08;98185.44;4965389;28;20511;-67
2021/07/16 10:45:39;;;;;;;2.60;2.30;;;;;;;23.40;56.09;98180.47;4983952;28;20678;-68
2021/07/16 10:48:13;;;;;;;2.23;2.10;;;;;;;24.20;52.41;98185.88;4976826;28;20662;-68
2021/07/16 10:50:42;;;;;;;1.87;1.77;;;;;;;24.57;49.97;98185.28;4982214;28;20678;-69
2021/07/16 10:53:16;;;;;;;1.73;1.63;;;;;;;24.47;51.19;98185.16;4983910;28;20229;-70
2021/07/16 10:56:05;;;;;;;1.80;1.70;;;;;;;24.48;52.49;98191.38;4988700;28;20219;-70
2021/07/16 10:58:49;;;;;;;2.00;1.40;;;;;;;25.84;47.44;98188.03;4984780;28;20225;-70
2021/07/16 11:01:34;;;;;;;1.70;1.60;;;;;;;25.45;51.64;98177.34;4984755;28;20579;-70
2021/07/16 11:04:04;;;;;;;1.40;1.30;;;;;;;26.15;48.00;98179.28;4985291;28;20760;-71
2021/07/16 11:06:54;;;;;;;1.37;1.37;;;;;;;26.45;44.72;98180.56;4984242;28;20252;-71
2021/07/16 11:09:32;;;;;;;1.33;1.23;;;;;;;26.47;45.32;98174.84;4984702;28;20813;-71
2021/07/16 11:12:20;;;;;;;1.70;1.60;;;;;;;28.14;40.07;98181.22;4985155;28;20216;-70
2021/07/16 11:14:49;;;;;;;1.17;1.07;;;;;;;27.40;41.81;98178.72;4984614;28;20206;-70
2021/07/16 11:17:32;;;;;;;1.67;1.60;;;;;;;26.72;44.16;98176.91;4986515;28;20201;-69
2021/07/16 11:20:15;;;;;;;1.50;1.23;;;;;;;26.70;43.29;98179.88;4981083;28;20207;-68
2021/07/16 11:23:03;;;;;;;1.40;1.30;;;;;;;27.56;42.96;98181.50;4985226;28;20352;-70
2021/07/16 11:25:34;;;;;;;1.57;1.47;;;;;;;27.00;43.77;98181.09;4985816;28;20650;-69
2021/07/16 11:28:02;;;;;;;1.83;1.17;;;;;;;27.22;43.89;98180.03;4988089;28;20316;-70
2021/07/16 11:30:32;;;;;;;1.20;1.10;;;;;;;27.25;43.73;98178.72;4986275;28;20601;-69
2021/07/16 11:33:04;;;;;;;0.90;0.90;;;;;;;26.85;42.71;98170.16;4986283;28;20957;-70
2021/07/16 11:35:33;;;;;;;1.73;1.17;;;;;;;26.89;42.37;98167.72;4983564;28;20202;-70
2021/07/16 11:38:06;;;;;;;1.23;1.23;;;;;;;26.85;42.66;98159.28;4985055;28;20228;-70